createdAt,value
2017-11-08T00:00:01.076Z,23.40
2017-11-08T00:02:29.183Z,19.90
2017-11-08T00:04:57.615Z,21.73
2017-11-08T00:07:26.001Z,21.83
2017-11-08T00:09:54.136Z,21.33
2017-11-08T00:12:23.884Z,22.75
2017-11-08T00:14:51.962Z,21.23
2017-11-08T00:17:20.442Z,22.90
2017-11-08T00:19:48.017Z,21.30
2017-11-08T00:22:19.071Z,23.55
2017-11-08T00:24:47.373Z,23.00
2017-11-08T00:27:15.438Z,22.40
2017-11-08T00:29:42.949Z,21.17
2017-11-08T00:32:10.476Z,22.48
2017-11-08T00:34:37.977Z,24.65
2017-11-08T00:37:05.483Z,22.27
2017-11-08T00:39:33.040Z,22.70
2017-11-08T00:42:00.572Z,22.55
2017-11-08T00:44:28.859Z,23.20
2017-11-08T00:46:56.572Z,20.83
2017-11-08T00:49:24.674Z,23.30
2017-11-08T00:51:52.232Z,22.58
2017-11-08T00:54:20.550Z,22.87
2017-11-08T00:56:48.051Z,21.70
2017-11-08T00:59:15.544Z,22.40
2017-11-08T01:01:43.071Z,23.08
2017-11-08T01:04:10.602Z,22.10
2017-11-08T01:06:38.127Z,21.17
2017-11-08T01:09:05.648Z,20.85
2017-11-08T01:11:33.181Z,22.55
2017-11-08T01:14:00.692Z,21.98
2017-11-08T01:16:28.990Z,21.75
2017-11-08T01:18:56.493Z,24.02
2017-11-08T01:21:24.153Z,23.85
2017-11-08T01:23:51.680Z,22.10
2017-11-08T01:26:19.180Z,22.42
2017-11-08T01:28:46.672Z,24.63
2017-11-08T01:31:14.201Z,23.20
2017-11-08T01:33:44.671Z,23.75
2017-11-08T01:36:12.513Z,22.50
2017-11-08T01:38:43.071Z,24.10
2017-11-08T01:41:16.362Z,24.40
2017-11-08T01:43:43.883Z,22.95
2017-11-08T01:46:18.008Z,24.33
2017-11-08T01:48:45.524Z,25.12
2017-11-08T01:51:13.837Z,23.92
2017-11-08T01:53:42.310Z,22.95
2017-11-08T01:56:10.329Z,25.37
2017-11-08T01:58:38.000Z,25.05
2017-11-08T02:01:05.514Z,26.67
2017-11-08T02:03:33.822Z,25.62
2017-11-08T02:06:01.342Z,25.02
2017-11-08T02:08:29.128Z,25.42
2017-11-08T02:10:56.839Z,25.65
2017-11-08T02:13:24.341Z,24.85
2017-11-08T02:15:52.627Z,25.75
2017-11-08T02:18:22.054Z,23.77
2017-11-08T02:20:49.578Z,24.70
2017-11-08T02:23:17.097Z,23.02
2017-11-08T02:25:44.606Z,25.15
2017-11-08T02:28:12.609Z,24.85
2017-11-08T02:30:40.164Z,24.67
2017-11-08T02:33:07.687Z,26.02
2017-11-08T02:35:35.201Z,23.62
2017-11-08T02:38:02.744Z,24.52
2017-11-08T02:40:30.268Z,24.02
2017-11-08T02:42:57.788Z,24.85
2017-11-08T02:45:30.907Z,24.35
2017-11-08T02:47:59.179Z,23.65
2017-11-08T02:50:27.450Z,22.95
2017-11-08T02:52:55.765Z,22.55
2017-11-08T02:55:23.296Z,23.62
2017-11-08T02:57:50.821Z,22.77
2017-11-08T03:00:18.349Z,23.65
2017-11-08T03:02:51.254Z,24.30
2017-11-08T03:05:18.932Z,24.95
2017-11-08T03:07:46.731Z,25.00
2017-11-08T03:10:14.255Z,25.17
2017-11-08T03:12:41.791Z,24.95
2017-11-08T03:15:09.309Z,23.90
2017-11-08T03:17:36.832Z,24.73
2017-11-08T03:20:04.367Z,24.42
2017-11-08T03:22:31.880Z,24.50
2017-11-08T03:24:59.404Z,25.73
2017-11-08T03:27:26.944Z,27.23
2017-11-08T03:29:54.465Z,24.48
2017-11-08T03:32:22.169Z,25.48
2017-11-08T03:34:49.783Z,25.33
2017-11-08T03:37:17.303Z,26.83
2017-11-08T03:39:44.820Z,25.83
2017-11-08T03:42:12.352Z,24.20
2017-11-08T03:44:40.650Z,25.73
2017-11-08T03:47:08.175Z,23.42
2017-11-08T03:49:36.476Z,27.52
2017-11-08T03:52:03.976Z,25.95
2017-11-08T03:54:31.482Z,24.60
2017-11-08T03:56:59.795Z,25.60
2017-11-08T03:59:27.302Z,26.02
2017-11-08T04:01:55.579Z,24.63
2017-11-08T04:04:23.865Z,23.30
2017-11-08T04:06:52.134Z,21.52
2017-11-08T04:09:20.416Z,23.08
2017-11-08T04:11:48.714Z,24.20
2017-11-08T04:14:16.213Z,23.27
2017-11-08T04:16:43.729Z,23.60
2017-11-08T04:19:11.257Z,23.38
2017-11-08T04:21:39.577Z,23.23
2017-11-08T04:24:07.132Z,25.30
2017-11-08T04:26:34.691Z,21.65
2017-11-08T04:29:02.228Z,24.42
2017-11-08T04:31:30.532Z,23.98
2017-11-08T04:33:58.913Z,24.25
2017-11-08T04:36:27.059Z,23.48
2017-11-08T04:38:54.817Z,24.00
2017-11-08T04:41:23.122Z,24.80
2017-11-08T04:43:50.622Z,24.83
2017-11-08T04:46:18.148Z,23.50
2017-11-08T04:48:45.664Z,26.45
2017-11-08T04:51:13.952Z,27.20
2017-11-08T04:53:42.235Z,27.83
2017-11-08T04:56:09.777Z,24.20
2017-11-08T04:58:39.223Z,27.27
2017-11-08T05:01:06.757Z,26.85
2017-11-08T05:03:34.277Z,29.05
2017-11-08T05:06:01.809Z,28.33
2017-11-08T05:08:29.773Z,25.95
2017-11-08T05:10:57.392Z,27.35
2017-11-08T05:13:25.676Z,27.10
2017-11-08T05:15:53.209Z,27.95
2017-11-08T05:18:20.729Z,26.83
2017-11-08T05:20:48.253Z,26.35
2017-11-08T05:23:15.780Z,26.95
2017-11-08T05:25:44.218Z,26.92
2017-11-08T05:28:11.778Z,26.98
2017-11-08T05:30:39.304Z,26.48
2017-11-08T05:33:06.824Z,28.48
2017-11-08T05:35:34.334Z,26.60
2017-11-08T05:38:01.851Z,26.40
2017-11-08T05:40:29.386Z,26.15
2017-11-08T05:42:56.889Z,27.58
2017-11-08T05:45:25.185Z,27.27
2017-11-08T05:47:52.723Z,26.40
2017-11-08T05:50:22.241Z,29.37
2017-11-08T05:52:49.745Z,25.98
2017-11-08T05:55:17.291Z,25.48
2017-11-08T05:57:44.797Z,25.62
2017-11-08T06:00:13.068Z,26.98
2017-11-08T06:02:40.637Z,26.35
2017-11-08T06:05:08.927Z,26.80
2017-11-08T06:07:36.463Z,26.23
2017-11-08T06:10:04.768Z,26.05
2017-11-08T06:12:32.258Z,26.37
2017-11-08T06:14:59.765Z,26.02
2017-11-08T06:17:28.064Z,26.60
2017-11-08T06:19:55.583Z,26.95
2017-11-08T06:22:23.835Z,30.05
2017-11-08T06:24:51.580Z,29.98
2017-11-08T06:27:19.103Z,31.08
2017-11-08T06:29:47.374Z,33.45
2017-11-08T06:32:15.682Z,34.78
2017-11-08T06:34:43.208Z,33.03
2017-11-08T06:37:11.608Z,33.08
2017-11-08T06:39:39.116Z,34.83
2017-11-08T06:42:06.650Z,34.83
2017-11-08T06:44:34.181Z,36.42
2017-11-08T06:47:01.708Z,37.45
2017-11-08T06:49:29.242Z,37.10
2017-11-08T06:51:57.012Z,36.90
2017-11-08T06:54:24.670Z,36.47
2017-11-08T06:56:52.996Z,36.33
2017-11-08T06:59:20.528Z,38.10
2017-11-08T07:01:48.042Z,40.75
2017-11-08T07:04:15.614Z,42.53
2017-11-08T07:06:43.145Z,43.63
2017-11-08T07:09:11.592Z,42.50
2017-11-08T07:11:39.233Z,41.50
2017-11-08T07:14:06.786Z,41.97
2017-11-08T07:16:34.296Z,44.90
2017-11-08T07:19:01.805Z,41.63
2017-11-08T07:21:29.859Z,42.42
2017-11-08T07:23:58.206Z,44.95
2017-11-08T07:26:25.750Z,41.78
2017-11-08T07:28:54.082Z,45.15
2017-11-08T07:31:21.581Z,42.78
2017-11-08T07:33:49.871Z,46.22
2017-11-08T07:36:18.421Z,44.22
2017-11-08T07:38:45.941Z,43.97
2017-11-08T07:41:13.437Z,42.72
2017-11-08T07:43:40.992Z,41.72
2017-11-08T07:46:08.516Z,42.40
2017-11-08T07:48:36.040Z,41.35
2017-11-08T07:51:04.355Z,39.45
2017-11-08T07:53:31.854Z,41.40
2017-11-08T07:56:03.312Z,41.45
2017-11-08T07:58:31.152Z,42.95
2017-11-08T08:00:59.488Z,44.50
2017-11-08T08:03:26.994Z,42.53
2017-11-08T08:05:54.640Z,42.58
2017-11-08T08:08:22.197Z,39.78
2017-11-08T08:10:49.724Z,38.85
2017-11-08T08:13:19.149Z,40.90
2017-11-08T08:15:46.683Z,40.53
2017-11-08T08:18:14.968Z,41.22
2017-11-08T08:20:42.487Z,38.22
2017-11-08T08:23:10.053Z,37.80
2017-11-08T08:25:38.333Z,37.03
2017-11-08T08:28:06.187Z,35.63
2017-11-08T08:30:33.742Z,32.90
2017-11-08T08:33:01.246Z,37.10
2017-11-08T08:35:28.788Z,37.17
2017-11-08T08:37:56.641Z,35.70
2017-11-08T08:40:24.431Z,37.88
2017-11-08T08:42:51.980Z,37.95
2017-11-08T08:45:19.878Z,38.45
2017-11-08T08:47:47.401Z,39.03
2017-11-08T08:50:15.680Z,38.85
2017-11-08T08:52:44.654Z,35.83
2017-11-08T08:55:12.211Z,38.55
2017-11-08T08:57:39.704Z,36.85
2017-11-08T09:00:07.252Z,37.50
2017-11-08T09:02:35.520Z,37.60
2017-11-08T09:05:03.370Z,41.00
2017-11-08T09:07:30.933Z,39.00
2017-11-08T09:09:58.440Z,38.80
2017-11-08T09:12:25.961Z,37.25
2017-11-08T09:14:54.279Z,37.22
2017-11-08T09:17:21.795Z,39.45
2017-11-08T09:19:49.304Z,38.58
2017-11-08T09:22:16.826Z,37.47
2017-11-08T09:24:50.031Z,35.95
2017-11-08T09:27:17.581Z,38.05
2017-11-08T09:29:46.886Z,37.85
2017-11-08T09:32:14.416Z,36.97
2017-11-08T09:34:46.959Z,37.20
2017-11-08T09:37:14.462Z,38.40
2017-11-08T09:39:42.749Z,38.63
2017-11-08T09:45:03.920Z,34.78
2017-11-08T09:47:32.085Z,37.35
2017-11-08T09:50:00.618Z,36.13
2017-11-08T09:52:28.201Z,35.70
2017-11-08T09:54:55.722Z,36.60
2017-11-08T09:57:26.210Z,35.88
2017-11-08T09:59:53.782Z,34.95
2017-11-08T10:02:21.287Z,35.25
2017-11-08T10:04:49.645Z,36.55
2017-11-08T10:07:17.164Z,35.08
2017-11-08T10:09:50.501Z,34.50
2017-11-08T10:12:17.953Z,36.70
2017-11-08T10:14:45.776Z,33.78
2017-11-08T10:17:13.360Z,33.65
2017-11-08T10:19:40.881Z,33.97
2017-11-08T10:22:10.818Z,34.85
2017-11-08T10:24:43.300Z,36.78
2017-11-08T10:27:10.928Z,38.42
2017-11-08T10:29:38.483Z,35.42
2017-11-08T10:32:06.045Z,37.13
2017-11-08T10:34:34.324Z,35.72
2017-11-08T10:37:01.880Z,38.90
2017-11-08T10:39:30.736Z,38.15
2017-11-08T10:41:58.330Z,40.40
2017-11-08T10:44:26.572Z,37.28
2017-11-08T10:46:54.127Z,38.80
2017-11-08T10:49:22.551Z,38.80
2017-11-08T10:51:50.067Z,37.85
2017-11-08T10:54:18.362Z,36.42
2017-11-08T10:56:46.636Z,39.47
2017-11-08T10:59:19.801Z,40.88
2017-11-08T11:01:48.079Z,41.00
2017-11-08T11:04:16.411Z,39.30
2017-11-08T11:06:43.955Z,41.90
2017-11-08T11:09:11.490Z,42.05
2017-11-08T11:11:39.003Z,40.80
2017-11-08T11:14:10.844Z,43.05
2017-11-08T11:16:38.380Z,46.72
2017-11-08T11:19:05.919Z,43.70
2017-11-08T11:21:37.286Z,46.50
2017-11-08T11:24:19.493Z,42.40
2017-11-08T11:26:48.833Z,43.53
2017-11-08T11:29:16.346Z,42.50
2017-11-08T11:31:43.864Z,42.72
2017-11-08T11:34:12.162Z,41.53
2017-11-08T11:36:40.449Z,45.45
2017-11-08T11:39:14.564Z,44.58
2017-11-08T11:41:42.844Z,43.30
2017-11-08T11:44:11.119Z,43.55
2017-11-08T11:46:39.452Z,44.85
2017-11-08T11:49:10.983Z,42.70
2017-11-08T11:51:38.518Z,46.58
2017-11-08T11:54:06.827Z,43.42
2017-11-08T11:56:34.566Z,42.45
2017-11-08T11:59:02.089Z,43.58
2017-11-08T12:01:29.623Z,40.95
2017-11-08T12:03:57.148Z,41.88
2017-11-08T12:06:26.259Z,38.17
2017-11-08T12:08:53.868Z,38.83
2017-11-08T12:11:21.461Z,40.45
2017-11-08T12:13:50.828Z,41.03
2017-11-08T12:16:18.421Z,37.13
2017-11-08T12:18:46.108Z,39.03
2017-11-08T12:21:14.358Z,37.63
2017-11-08T12:23:42.301Z,40.40
2017-11-08T12:26:10.343Z,42.90
2017-11-08T12:28:43.922Z,40.40
2017-11-08T12:31:11.678Z,40.70
2017-11-08T12:33:39.380Z,39.85
2017-11-08T12:36:07.620Z,41.95
2017-11-08T12:38:38.427Z,41.67
2017-11-08T12:41:06.975Z,42.75
2017-11-08T12:43:35.357Z,43.45
2017-11-08T12:46:03.889Z,42.47
2017-11-08T12:48:32.010Z,39.83
2017-11-08T12:50:59.900Z,40.20
2017-11-08T12:53:28.053Z,40.90
2017-11-08T12:55:56.184Z,36.15
2017-11-08T12:58:24.096Z,35.20
2017-11-08T13:00:52.959Z,37.60
2017-11-08T13:03:20.851Z,35.03
2017-11-08T13:05:54.623Z,36.22
2017-11-08T13:08:23.573Z,36.60
2017-11-08T13:10:57.214Z,39.55
2017-11-08T13:13:25.236Z,39.30
2017-11-08T13:15:53.165Z,39.15
2017-11-08T13:18:21.940Z,39.75
2017-11-08T13:20:49.775Z,39.60
2017-11-08T13:23:17.820Z,41.03
2017-11-08T13:25:45.842Z,43.50
2017-11-08T13:28:13.788Z,43.80
2017-11-08T13:30:41.744Z,45.00
2017-11-08T13:33:09.718Z,46.15
2017-11-08T13:35:38.749Z,46.15
2017-11-08T13:38:07.475Z,50.22
2017-11-08T13:40:35.953Z,50.65
2017-11-08T13:43:04.196Z,54.85
2017-11-08T13:45:32.519Z,59.00
2017-11-08T13:48:01.098Z,58.53
2017-11-08T13:50:30.357Z,59.97
2017-11-08T13:52:59.160Z,63.22
2017-11-08T13:55:28.122Z,63.90
2017-11-08T13:57:56.141Z,70.82
2017-11-08T14:00:24.180Z,65.25
2017-11-08T14:02:52.503Z,69.10
2017-11-08T14:05:20.590Z,67.00
2017-11-08T14:07:48.536Z,66.45
2017-11-08T14:10:16.494Z,64.30
2017-11-08T14:12:44.528Z,64.47
2017-11-08T14:15:12.559Z,66.22
2017-11-08T14:17:40.597Z,64.05
2017-11-08T14:20:08.745Z,66.05
2017-11-08T14:22:36.932Z,68.25
2017-11-08T14:25:05.840Z,64.50
2017-11-08T14:27:33.970Z,65.90
2017-11-08T14:30:02.539Z,63.35
2017-11-08T14:32:31.391Z,62.92
2017-11-08T14:34:59.501Z,63.28
2017-11-08T14:37:27.435Z,60.83
2017-11-08T14:39:56.626Z,61.35
2017-11-08T14:42:29.218Z,59.83
2017-11-08T14:44:57.238Z,60.38
2017-11-08T14:47:26.166Z,60.53
2017-11-08T14:49:55.052Z,60.45
2017-11-08T14:52:23.428Z,64.68
2017-11-08T14:54:52.430Z,64.55
2017-11-08T14:57:20.329Z,66.18
2017-11-08T14:59:48.980Z,57.75
2017-11-08T15:02:17.120Z,57.28
2017-11-08T15:04:45.940Z,60.20
2017-11-08T15:07:14.935Z,60.33
2017-11-08T15:09:43.644Z,58.85
2017-11-08T15:12:11.976Z,57.47
2017-11-08T15:14:42.504Z,57.00
2017-11-08T15:17:10.784Z,56.25
2017-11-08T15:19:43.975Z,55.00
2017-11-08T15:22:11.972Z,58.60
2017-11-08T15:24:39.532Z,61.75
2017-11-08T15:27:07.058Z,61.25
2017-11-08T15:29:37.174Z,61.10
2017-11-08T15:32:05.463Z,56.00
2017-11-08T15:34:33.969Z,60.58
2017-11-08T15:37:01.528Z,57.65
2017-11-08T15:39:29.067Z,60.88
2017-11-08T15:41:56.570Z,58.00
2017-11-08T15:44:24.069Z,56.53
2017-11-08T15:46:55.222Z,60.88
2017-11-08T15:49:22.746Z,57.28
2017-11-08T15:51:50.261Z,58.65
2017-11-08T15:54:18.098Z,62.03
2017-11-08T15:56:45.765Z,57.08
2017-11-08T15:59:14.054Z,59.40
2017-11-08T16:01:41.604Z,59.60
2017-11-08T16:04:11.944Z,61.83
2017-11-08T16:06:39.461Z,61.35
2017-11-08T16:09:09.842Z,61.15
2017-11-08T16:11:37.377Z,62.03
2017-11-08T16:14:04.915Z,60.63
2017-11-08T16:16:33.226Z,60.35
2017-11-08T16:19:02.666Z,58.45
2017-11-08T16:21:31.022Z,54.78
2017-11-08T16:23:58.801Z,58.13
2017-11-08T16:26:26.365Z,59.85
2017-11-08T16:28:53.866Z,59.03
2017-11-08T16:31:22.161Z,61.75
2017-11-08T16:33:50.181Z,61.17
2017-11-08T16:36:17.730Z,60.78
2017-11-08T16:38:45.585Z,61.22
2017-11-08T16:41:13.931Z,61.72
2017-11-08T16:43:41.464Z,64.78
2017-11-08T16:46:09.763Z,62.58
2017-11-08T16:48:38.280Z,61.65
2017-11-08T16:51:05.823Z,62.75
2017-11-08T16:53:33.358Z,64.95
2017-11-08T16:56:02.266Z,64.85
2017-11-08T16:58:29.771Z,65.60
2017-11-08T17:00:57.319Z,66.47
2017-11-08T17:03:24.840Z,63.63
2017-11-08T17:05:52.421Z,62.05
2017-11-08T17:08:19.961Z,64.57
2017-11-08T17:10:47.628Z,61.90
2017-11-08T17:13:15.157Z,62.33
2017-11-08T17:15:43.457Z,64.78
2017-11-08T17:18:10.981Z,63.38
2017-11-08T17:20:38.572Z,60.70
2017-11-08T17:23:06.214Z,59.83
2017-11-08T17:25:34.491Z,58.90
2017-11-08T17:28:02.769Z,57.30
2017-11-08T17:30:30.322Z,55.95
2017-11-08T17:32:58.623Z,56.10
2017-11-08T17:35:26.143Z,53.83
2017-11-08T17:37:53.661Z,54.58
2017-11-08T17:40:21.193Z,53.38
2017-11-08T17:42:48.751Z,54.55
2017-11-08T17:45:17.092Z,56.22
2017-11-08T17:47:45.826Z,55.33
2017-11-08T17:50:13.356Z,53.95
2017-11-08T17:52:40.911Z,54.95
2017-11-08T17:55:08.440Z,57.53
2017-11-08T17:57:35.997Z,56.72
2017-11-08T18:00:03.501Z,58.13
2017-11-08T18:02:31.861Z,56.55
2017-11-08T18:04:59.433Z,54.90
2017-11-08T18:07:27.714Z,55.97
2017-11-08T18:09:56.033Z,66.43
2017-11-08T18:12:23.545Z,55.45
2017-11-08T18:14:51.106Z,54.15
2017-11-08T18:17:19.406Z,72.75
2017-11-08T18:19:46.933Z,51.70
2017-11-08T18:22:14.570Z,56.28
2017-11-08T18:24:42.117Z,52.97
2017-11-08T18:27:09.646Z,54.45
2017-11-08T18:29:37.200Z,54.55
2017-11-08T18:32:04.925Z,57.38
2017-11-08T18:34:32.448Z,58.55
2017-11-08T18:37:00.200Z,55.35
2017-11-08T18:39:27.737Z,126.90
2017-11-08T18:41:56.028Z,60.75
2017-11-08T18:44:23.543Z,55.55
2017-11-08T18:46:51.073Z,57.40
2017-11-08T18:49:18.585Z,57.85
2017-11-08T18:51:46.881Z,53.28
2017-11-08T18:54:14.602Z,87.20
2017-11-08T18:56:43.772Z,58.38
2017-11-08T18:59:11.524Z,57.40
2017-11-08T19:01:39.124Z,53.38
2017-11-08T19:04:06.868Z,57.22
2017-11-08T19:06:35.313Z,55.72
2017-11-08T19:09:03.112Z,64.05
2017-11-08T19:11:31.529Z,99.05
2017-11-08T19:14:00.107Z,58.25
2017-11-08T19:16:28.542Z,58.47
2017-11-08T19:18:56.418Z,61.83
2017-11-08T19:21:25.507Z,56.33
2017-11-08T19:23:54.225Z,102.07
2017-11-08T19:26:22.232Z,72.87
2017-11-08T19:28:50.162Z,57.75
2017-11-08T19:31:18.131Z,56.72
2017-11-08T19:33:45.832Z,59.67
2017-11-08T19:36:13.661Z,74.20
2017-11-08T19:38:41.458Z,57.62
2017-11-08T19:41:09.305Z,58.17
2017-11-08T19:43:37.081Z,56.15
2017-11-08T19:46:04.896Z,56.35
2017-11-08T19:48:33.015Z,55.00
2017-11-08T19:51:00.866Z,53.55
2017-11-08T19:53:28.553Z,54.83
2017-11-08T19:55:56.361Z,55.35
2017-11-08T19:58:25.152Z,55.30
2017-11-08T20:00:53.201Z,54.45
2017-11-08T20:03:21.302Z,55.53
2017-11-08T20:05:49.893Z,54.53
2017-11-08T20:08:18.325Z,53.92
2017-11-08T20:10:46.028Z,68.07
2017-11-08T20:13:13.802Z,54.50
2017-11-08T20:15:42.220Z,55.80
2017-11-08T20:18:09.910Z,53.38
2017-11-08T20:20:37.530Z,55.17
2017-11-08T20:23:06.934Z,58.42
2017-11-08T20:25:35.374Z,58.05
2017-11-08T20:28:03.116Z,111.20
2017-11-08T20:30:30.736Z,74.68
2017-11-08T20:32:59.095Z,60.38
2017-11-08T20:35:26.618Z,67.68
2017-11-08T20:37:54.184Z,60.35
2017-11-08T20:40:21.706Z,53.78
2017-11-08T20:42:49.983Z,65.00
2017-11-08T20:45:18.352Z,62.13
2017-11-08T20:47:46.657Z,52.00
2017-11-08T20:50:14.225Z,50.08
2017-11-08T20:52:41.780Z,61.50
2017-11-08T20:55:09.307Z,62.85
2017-11-08T20:57:37.002Z,53.38
2017-11-08T21:00:04.655Z,51.33
2017-11-08T21:02:32.378Z,52.53
2017-11-08T21:04:59.950Z,52.80
2017-11-08T21:07:27.493Z,59.63
2017-11-08T21:09:55.010Z,64.40
2017-11-08T21:12:22.590Z,48.80
2017-11-08T21:14:50.226Z,53.38
2017-11-08T21:17:17.758Z,62.35
2017-11-08T21:19:46.061Z,56.30
2017-11-08T21:22:13.597Z,52.22
2017-11-08T21:24:41.888Z,54.72
2017-11-08T21:27:09.403Z,47.53
2017-11-08T21:29:36.949Z,67.07
2017-11-08T21:32:04.497Z,51.37
2017-11-08T21:34:32.021Z,56.53
2017-11-08T21:37:00.336Z,93.80
2017-11-08T21:39:27.865Z,64.28
2017-11-08T21:41:55.400Z,50.47
2017-11-08T21:44:23.558Z,50.03
2017-11-08T21:46:51.101Z,51.42
2017-11-08T21:49:18.678Z,51.45
2017-11-08T21:51:46.227Z,47.42
2017-11-08T21:54:13.726Z,51.65
2017-11-08T21:56:41.945Z,43.75
2017-11-08T21:59:09.643Z,44.10
2017-11-08T22:01:37.164Z,42.70
2017-11-08T22:04:04.681Z,44.90
2017-11-08T22:06:32.975Z,43.67
2017-11-08T22:09:00.497Z,44.30
2017-11-08T22:11:28.102Z,43.78
2017-11-08T22:13:56.773Z,40.70
2017-11-08T22:16:25.177Z,44.20
2017-11-08T22:18:52.696Z,43.40
2017-11-08T22:21:20.982Z,43.30
2017-11-08T22:23:49.254Z,44.63
2017-11-08T22:26:17.537Z,40.30
2017-11-08T22:28:45.066Z,40.10
2017-11-08T22:31:12.580Z,40.50
2017-11-08T22:33:41.744Z,39.67
2017-11-08T22:36:09.319Z,40.50
2017-11-08T22:38:36.833Z,36.45
2017-11-08T22:41:04.360Z,38.20
2017-11-08T22:43:31.983Z,40.22
2017-11-08T22:46:00.269Z,39.92
2017-11-08T22:48:28.548Z,39.90
2017-11-08T22:50:56.109Z,38.60
2017-11-08T22:53:23.645Z,35.53
2017-11-08T22:55:52.230Z,35.80
2017-11-08T22:58:19.822Z,36.40
2017-11-08T23:00:47.376Z,35.40
2017-11-08T23:03:14.909Z,36.92
2017-11-08T23:05:43.211Z,33.67
2017-11-08T23:08:10.733Z,34.70
2017-11-08T23:10:38.234Z,36.88
2017-11-08T23:13:05.780Z,37.72
2017-11-08T23:15:33.298Z,39.50
2017-11-08T23:18:00.806Z,37.25
2017-11-08T23:20:29.322Z,37.13
2017-11-08T23:22:57.174Z,37.05
2017-11-08T23:25:24.691Z,37.70
2017-11-08T23:27:53.024Z,37.85
2017-11-08T23:30:20.533Z,38.33
2017-11-08T23:32:48.051Z,37.88
2017-11-08T23:35:16.365Z,40.30
2017-11-08T23:37:43.880Z,39.13
2017-11-08T23:40:11.532Z,38.67
2017-11-08T23:42:39.729Z,41.37
2017-11-08T23:45:07.451Z,38.13
2017-11-08T23:47:34.996Z,39.92
2017-11-08T23:50:02.552Z,39.25
2017-11-08T23:52:30.837Z,39.33
2017-11-08T23:54:58.363Z,39.17
2017-11-08T23:57:26.263Z,36.85
2017-11-08T23:59:59.495Z,39.63
